CES5024 RPVM-ZSPD
Flight info
| Callsign | CES5024 |
|---|---|
| Flight time | N/A |
| Altitude | 34000 |
| Route | MULOP4P MULOP W11 MIA A461 CAB B462 LAO M646 POTIB Q11 JICHI B591 WAGON Q11 DRAKE L2 BERBA R596 SULEM/K0874S1035 R596 DST B221 PAMVU V74 BK BK82A |
| Aircraft | A321/M-SDE3FGHIRWY/LB1 |
Departure
| Time | N/A |
|---|---|
| Airport | Mactan Cebu International Airport (RPVM) |
Arrival
| Time | 2026-05-03 21:26 |
|---|---|
| Airport | Shanghai Pudong International Airport (ZSPD) |
| Time | Latitude | Longitude | Altitude | Speed | Heading |
|---|---|---|---|---|---|
| 2026-05-03 20:15 | 25.09865 | 122.05762 | 34078 ft | 494 kts | 355° |
| 2026-05-03 20:15 | 25.16689 | 122.06031 | 34089 ft | 494 kts | 355° |
| 2026-05-03 20:16 | 25.23567 | 122.06298 | 34077 ft | 495 kts | 355° |
| 2026-05-03 20:16 | 25.30447 | 122.06566 | 34081 ft | 495 kts | 355° |
| 2026-05-03 20:17 | 25.37329 | 122.06839 | 34076 ft | 495 kts | 355° |
| 2026-05-03 20:17 | 25.44217 | 122.07121 | 34085 ft | 495 kts | 355° |
| 2026-05-03 20:18 | 25.51061 | 122.07398 | 34082 ft | 496 kts | 355° |
| 2026-05-03 20:18 | 25.57959 | 122.07805 | 34075 ft | 501 kts | 2° |
| 2026-05-03 20:19 | 25.64705 | 122.10115 | 34099 ft | 518 kts | 22° |
| 2026-05-03 20:19 | 25.70906 | 122.14296 | 34091 ft | 523 kts | 27° |
| 2026-05-03 20:20 | 25.77028 | 122.18571 | 34081 ft | 524 kts | 27° |
| 2026-05-03 20:20 | 25.83199 | 122.22879 | 34083 ft | 524 kts | 27° |
| 2026-05-03 20:21 | 25.89376 | 122.27192 | 34107 ft | 524 kts | 27° |
| 2026-05-03 20:21 | 25.95547 | 122.31505 | 34095 ft | 524 kts | 27° |
| 2026-05-03 20:22 | 26.01710 | 122.35813 | 34084 ft | 523 kts | 27° |
| 2026-05-03 20:22 | 26.07833 | 122.40101 | 34090 ft | 524 kts | 27° |
| 2026-05-03 20:23 | 26.13997 | 122.44422 | 34101 ft | 523 kts | 27° |
| 2026-05-03 20:23 | 26.20149 | 122.48757 | 34092 ft | 523 kts | 27° |
| 2026-05-03 20:24 | 26.26300 | 122.53092 | 34092 ft | 523 kts | 27° |
| 2026-05-03 20:24 | 26.32450 | 122.57423 | 34113 ft | 524 kts | 27° |
| 2026-05-03 20:25 | 26.38575 | 122.61742 | 34082 ft | 525 kts | 27° |
| 2026-05-03 20:25 | 26.44743 | 122.66101 | 34090 ft | 525 kts | 27° |
| 2026-05-03 20:26 | 26.50911 | 122.70465 | 34100 ft | 525 kts | 27° |
| 2026-05-03 20:26 | 26.57078 | 122.74834 | 34090 ft | 526 kts | 28° |
| 2026-05-03 20:27 | 26.63226 | 122.79195 | 34086 ft | 527 kts | 28° |
| 2026-05-03 20:27 | 26.69431 | 122.83597 | 34089 ft | 528 kts | 27° |
| 2026-05-03 20:28 | 26.75977 | 122.87093 | 34111 ft | 518 kts | 13° |
| 2026-05-03 20:28 | 26.82780 | 122.89822 | 34069 ft | 520 kts | 13° |
| 2026-05-03 20:29 | 26.89548 | 122.92558 | 34089 ft | 521 kts | 13° |
| 2026-05-03 20:29 | 26.96361 | 122.95333 | 34098 ft | 521 kts | 14° |
| 2026-05-03 20:30 | 27.03221 | 122.97811 | 34094 ft | 512 kts | 3° |
| 2026-05-03 20:30 | 27.06718 | 122.98287 | 34095 ft | 501 kts | 354° |
| 2026-05-03 20:30 | 27.10164 | 122.98170 | 34096 ft | 490 kts | 345° |
| 2026-05-03 20:30 | 27.13477 | 122.97504 | 34163 ft | 479 kts | 336° |
| 2026-05-03 20:31 | 27.16617 | 122.96368 | 34181 ft | 471 kts | 331° |
| 2026-05-03 20:31 | 27.22732 | 122.93851 | 34179 ft | 471 kts | 331° |
| 2026-05-03 20:32 | 27.28905 | 122.91320 | 34178 ft | 473 kts | 330° |
| 2026-05-03 20:32 | 27.35069 | 122.88745 | 34192 ft | 469 kts | 326° |
| 2026-05-03 20:32 | 27.37841 | 122.86958 | 34177 ft | 452 kts | 313° |
| 2026-05-03 20:33 | 27.40123 | 122.84629 | 34183 ft | 437 kts | 302° |
| 2026-05-03 20:33 | 27.41880 | 122.81909 | 34189 ft | 424 kts | 291° |
| 2026-05-03 20:33 | 27.43067 | 122.78976 | 34183 ft | 413 kts | 281° |
| 2026-05-03 20:34 | 27.43848 | 122.72728 | 34190 ft | 401 kts | 265° |
| 2026-05-03 20:34 | 27.43853 | 122.66447 | 34195 ft | 402 kts | 266° |
| 2026-05-03 20:35 | 27.43873 | 122.60153 | 34200 ft | 402 kts | 266° |
| 2026-05-03 20:35 | 27.43889 | 122.53856 | 34203 ft | 403 kts | 266° |
| 2026-05-03 20:36 | 27.43895 | 122.47594 | 34214 ft | 403 kts | 265° |
| 2026-05-03 20:36 | 27.44068 | 122.41285 | 34208 ft | 408 kts | 274° |
| 2026-05-03 20:37 | 27.45164 | 122.34995 | 34209 ft | 410 kts | 275° |
| 2026-05-03 20:37 | 27.46266 | 122.28702 | 34222 ft | 409 kts | 275° |
| 2026-05-03 20:38 | 27.47359 | 122.22453 | 34213 ft | 409 kts | 275° |
| 2026-05-03 20:38 | 27.48457 | 122.16167 | 34216 ft | 409 kts | 275° |
| 2026-05-03 20:39 | 27.49553 | 122.09878 | 34212 ft | 409 kts | 275° |
| 2026-05-03 20:39 | 27.50647 | 122.03590 | 34237 ft | 409 kts | 275° |
| 2026-05-03 20:40 | 27.51725 | 121.97355 | 34218 ft | 408 kts | 275° |
| 2026-05-03 20:40 | 27.52808 | 121.91081 | 34215 ft | 408 kts | 275° |
| 2026-05-03 20:41 | 27.53880 | 121.84810 | 34220 ft | 407 kts | 275° |
| 2026-05-03 20:41 | 27.54952 | 121.78545 | 34228 ft | 407 kts | 275° |
| 2026-05-03 20:42 | 27.56020 | 121.72299 | 34228 ft | 405 kts | 275° |
| 2026-05-03 20:42 | 27.57075 | 121.66119 | 34226 ft | 404 kts | 275° |
| 2026-05-03 20:43 | 27.58132 | 121.59909 | 34194 ft | 403 kts | 275° |
| 2026-05-03 20:43 | 27.59204 | 121.53681 | 34183 ft | 406 kts | 275° |
| 2026-05-03 20:44 | 27.60322 | 121.47435 | 34201 ft | 407 kts | 275° |
| 2026-05-03 20:44 | 27.61442 | 121.41187 | 34210 ft | 406 kts | 275° |
| 2026-05-03 20:45 | 27.62535 | 121.34984 | 34212 ft | 406 kts | 275° |
| 2026-05-03 20:45 | 27.63079 | 121.31879 | 33831 ft | 403 kts | 275° |
| 2026-05-03 20:45 | 27.63623 | 121.28776 | 33548 ft | 405 kts | 275° |
| 2026-05-03 20:45 | 27.64168 | 121.25653 | 33264 ft | 407 kts | 275° |
| 2026-05-03 20:46 | 27.64714 | 121.22520 | 32995 ft | 407 kts | 275° |
| 2026-05-03 20:46 | 27.65263 | 121.19394 | 32728 ft | 406 kts | 275° |
| 2026-05-03 20:46 | 27.65812 | 121.16275 | 32452 ft | 406 kts | 275° |
| 2026-05-03 20:46 | 27.66359 | 121.13144 | 32180 ft | 407 kts | 275° |
| 2026-05-03 20:47 | 27.66895 | 121.10044 | 31920 ft | 409 kts | 275° |
| 2026-05-03 20:47 | 27.67440 | 121.06892 | 31659 ft | 411 kts | 275° |
| 2026-05-03 20:47 | 27.67991 | 121.03725 | 31396 ft | 412 kts | 275° |
| 2026-05-03 20:47 | 27.68547 | 121.00549 | 31190 ft | 414 kts | 275° |
| 2026-05-03 20:48 | 27.69102 | 120.97365 | 31190 ft | 415 kts | 275° |
| 2026-05-03 20:48 | 27.70204 | 120.90974 | 31203 ft | 415 kts | 275° |
| 2026-05-03 20:49 | 27.71300 | 120.84579 | 31202 ft | 415 kts | 275° |
| 2026-05-03 20:49 | 27.72387 | 120.78236 | 31203 ft | 415 kts | 275° |
| 2026-05-03 20:50 | 27.73844 | 120.71915 | 31200 ft | 426 kts | 288° |
| 2026-05-03 20:50 | 27.75435 | 120.69036 | 31204 ft | 441 kts | 301° |
| 2026-05-03 20:50 | 27.77701 | 120.66611 | 31203 ft | 459 kts | 315° |
| 2026-05-03 20:50 | 27.80569 | 120.64867 | 31204 ft | 480 kts | 331° |
| 2026-05-03 20:51 | 27.83889 | 120.64014 | 31216 ft | 501 kts | 347° |
| 2026-05-03 20:51 | 27.87376 | 120.64112 | 31204 ft | 512 kts | 356° |
| 2026-05-03 20:51 | 27.90930 | 120.64432 | 31214 ft | 514 kts | 356° |
| 2026-05-03 20:52 | 27.98060 | 120.65122 | 31209 ft | 515 kts | 356° |
| 2026-05-03 20:52 | 28.05208 | 120.65822 | 31209 ft | 516 kts | 356° |
| 2026-05-03 20:53 | 28.12341 | 120.66525 | 31216 ft | 514 kts | 356° |
| 2026-05-03 20:53 | 28.19420 | 120.67223 | 31211 ft | 514 kts | 356° |
| 2026-05-03 20:54 | 28.26556 | 120.67923 | 31213 ft | 514 kts | 356° |
| 2026-05-03 20:54 | 28.37254 | 120.68961 | 31217 ft | 515 kts | 356° |
| 2026-05-03 20:55 | 28.44393 | 120.69660 | 31227 ft | 515 kts | 356° |
| 2026-05-03 20:55 | 28.51478 | 120.70367 | 31233 ft | 515 kts | 356° |
| 2026-05-03 20:56 | 28.58625 | 120.71099 | 31247 ft | 515 kts | 356° |
| 2026-05-03 20:56 | 28.65760 | 120.71890 | 31240 ft | 520 kts | 2° |
| 2026-05-03 20:57 | 28.69304 | 120.72923 | 31229 ft | 532 kts | 14° |
| 2026-05-03 20:57 | 28.72694 | 120.74706 | 31227 ft | 543 kts | 25° |
| 2026-05-03 20:57 | 28.79100 | 120.79344 | 31223 ft | 546 kts | 27° |
| 2026-05-03 20:58 | 28.85472 | 120.83968 | 31228 ft | 547 kts | 26° |
| 2026-05-03 20:58 | 28.91895 | 120.88619 | 31230 ft | 547 kts | 26° |
| 2026-05-03 20:59 | 28.98316 | 120.93280 | 31230 ft | 547 kts | 27° |
| 2026-05-03 20:59 | 29.04736 | 120.97962 | 31217 ft | 548 kts | 27° |
| 2026-05-03 21:00 | 29.08989 | 121.01065 | 31231 ft | 548 kts | 26° |
| 2026-05-03 21:00 | 29.17677 | 121.06953 | 31233 ft | 537 kts | 15° |
| 2026-05-03 21:01 | 29.24707 | 121.09618 | 31244 ft | 531 kts | 10° |
| 2026-05-03 21:01 | 29.31730 | 121.12165 | 31225 ft | 529 kts | 9° |
| 2026-05-03 21:02 | 29.38700 | 121.14706 | 31222 ft | 529 kts | 9° |
| 2026-05-03 21:02 | 29.45720 | 121.17274 | 31246 ft | 530 kts | 9° |
| 2026-05-03 21:03 | 29.52738 | 121.19859 | 31224 ft | 530 kts | 10° |
| 2026-05-03 21:03 | 29.59768 | 121.22450 | 31208 ft | 531 kts | 9° |
| 2026-05-03 21:04 | 29.66747 | 121.25014 | 31194 ft | 530 kts | 10° |
| 2026-05-03 21:04 | 29.70252 | 121.26303 | 30797 ft | 528 kts | 10° |
| 2026-05-03 21:04 | 29.73801 | 121.27607 | 29666 ft | 529 kts | 10° |
| 2026-05-03 21:05 | 29.77307 | 121.28897 | 27879 ft | 529 kts | 11° |
| 2026-05-03 21:05 | 29.80833 | 121.30196 | 26597 ft | 534 kts | 11° |
| 2026-05-03 21:05 | 29.84381 | 121.31503 | 25351 ft | 540 kts | 12° |
| 2026-05-03 21:05 | 29.87961 | 121.32842 | 24449 ft | 540 kts | 14° |
| 2026-05-03 21:06 | 29.91411 | 121.34571 | 23749 ft | 541 kts | 23° |
| 2026-05-03 21:06 | 29.94661 | 121.36610 | 22950 ft | 536 kts | 24° |
| 2026-05-03 21:06 | 29.97915 | 121.38652 | 22280 ft | 526 kts | 24° |
| 2026-05-03 21:06 | 30.01092 | 121.40640 | 21812 ft | 515 kts | 24° |
| 2026-05-03 21:07 | 30.04218 | 121.42598 | 21259 ft | 507 kts | 23° |
| 2026-05-03 21:07 | 30.07295 | 121.44525 | 20734 ft | 499 kts | 23° |
| 2026-05-03 21:07 | 30.10326 | 121.46421 | 20207 ft | 492 kts | 23° |
| 2026-05-03 21:07 | 30.13315 | 121.48289 | 19711 ft | 483 kts | 23° |
| 2026-05-03 21:08 | 30.16248 | 121.50100 | 19200 ft | 472 kts | 20° |
| 2026-05-03 21:08 | 30.19277 | 121.51333 | 18701 ft | 453 kts | 6° |
| 2026-05-03 21:08 | 30.22307 | 121.51905 | 18187 ft | 443 kts | 2° |
| 2026-05-03 21:08 | 30.25345 | 121.52425 | 17602 ft | 442 kts | 2° |
| 2026-05-03 21:09 | 30.28377 | 121.52925 | 17254 ft | 439 kts | 2° |
| 2026-05-03 21:09 | 30.31389 | 121.53418 | 16995 ft | 436 kts | 2° |
| 2026-05-03 21:09 | 30.34390 | 121.53911 | 16752 ft | 434 kts | 3° |
| 2026-05-03 21:09 | 30.37369 | 121.54409 | 16498 ft | 431 kts | 3° |
| 2026-05-03 21:10 | 30.40325 | 121.54908 | 16248 ft | 429 kts | 3° |
| 2026-05-03 21:10 | 30.43273 | 121.55405 | 16000 ft | 427 kts | 3° |
| 2026-05-03 21:10 | 30.46167 | 121.55894 | 15752 ft | 425 kts | 4° |
| 2026-05-03 21:10 | 30.49092 | 121.56384 | 15510 ft | 424 kts | 4° |
| 2026-05-03 21:11 | 30.52008 | 121.56872 | 15270 ft | 423 kts | 4° |
| 2026-05-03 21:11 | 30.54913 | 121.57358 | 15026 ft | 422 kts | 4° |
| 2026-05-03 21:11 | 30.57811 | 121.57845 | 14801 ft | 420 kts | 4° |
| 2026-05-03 21:11 | 30.60697 | 121.58331 | 14567 ft | 418 kts | 4° |
| 2026-05-03 21:12 | 30.63573 | 121.58817 | 14333 ft | 417 kts | 4° |
| 2026-05-03 21:12 | 30.66434 | 121.59299 | 14096 ft | 415 kts | 4° |
| 2026-05-03 21:12 | 30.69250 | 121.59773 | 13858 ft | 414 kts | 4° |
| 2026-05-03 21:12 | 30.72093 | 121.60252 | 13606 ft | 412 kts | 4° |
| 2026-05-03 21:13 | 30.74919 | 121.60733 | 13338 ft | 409 kts | 4° |
| 2026-05-03 21:13 | 30.77727 | 121.61209 | 13072 ft | 406 kts | 4° |
| 2026-05-03 21:13 | 30.80515 | 121.61677 | 12826 ft | 403 kts | 4° |
| 2026-05-03 21:13 | 30.83282 | 121.62139 | 12569 ft | 400 kts | 4° |
| 2026-05-03 21:14 | 30.86028 | 121.62600 | 12316 ft | 397 kts | 5° |
| 2026-05-03 21:14 | 30.88756 | 121.63061 | 12064 ft | 395 kts | 5° |
| 2026-05-03 21:14 | 30.91465 | 121.63522 | 11820 ft | 392 kts | 5° |
| 2026-05-03 21:14 | 30.94121 | 121.63973 | 11577 ft | 390 kts | 5° |
| 2026-05-03 21:15 | 30.96799 | 121.64427 | 11330 ft | 387 kts | 5° |
| 2026-05-03 21:15 | 30.99421 | 121.64872 | 11084 ft | 373 kts | 5° |
| 2026-05-03 21:15 | 31.01937 | 121.65301 | 10838 ft | 358 kts | 5° |
| 2026-05-03 21:15 | 31.04349 | 121.65713 | 10606 ft | 343 kts | 5° |
| 2026-05-03 21:16 | 31.06666 | 121.66111 | 10375 ft | 330 kts | 5° |
| 2026-05-03 21:16 | 31.08897 | 121.66495 | 10143 ft | 318 kts | 5° |
| 2026-05-03 21:16 | 31.11046 | 121.66842 | 9952 ft | 304 kts | 1° |
| 2026-05-03 21:16 | 31.13076 | 121.66843 | 9826 ft | 288 kts | 352° |
| 2026-05-03 21:17 | 31.14998 | 121.66452 | 9673 ft | 274 kts | 343° |
| 2026-05-03 21:17 | 31.16210 | 121.66021 | 9602 ft | 266 kts | 340° |
| 2026-05-03 21:17 | 31.18522 | 121.65176 | 9424 ft | 261 kts | 341° |
| 2026-05-03 21:17 | 31.20256 | 121.64548 | 9131 ft | 263 kts | 341° |
| 2026-05-03 21:18 | 31.22016 | 121.63911 | 8648 ft | 265 kts | 341° |
| 2026-05-03 21:18 | 31.23760 | 121.63279 | 8337 ft | 261 kts | 341° |
| 2026-05-03 21:18 | 31.25479 | 121.62657 | 8033 ft | 256 kts | 341° |
| 2026-05-03 21:18 | 31.27167 | 121.62029 | 7731 ft | 253 kts | 341° |
| 2026-05-03 21:19 | 31.28814 | 121.61404 | 7409 ft | 252 kts | 340° |
| 2026-05-03 21:19 | 31.30506 | 121.60758 | 6798 ft | 260 kts | 341° |
| 2026-05-03 21:19 | 31.32265 | 121.60145 | 6136 ft | 269 kts | 348° |
| 2026-05-03 21:19 | 31.34154 | 121.60242 | 5466 ft | 277 kts | 13° |
| 2026-05-03 21:20 | 31.35824 | 121.61320 | 4821 ft | 280 kts | 38° |
| 2026-05-03 21:20 | 31.36940 | 121.63230 | 4141 ft | 290 kts | 67° |
| 2026-05-03 21:20 | 31.37163 | 121.65549 | 3487 ft | 289 kts | 96° |
| 2026-05-03 21:20 | 31.36484 | 121.67703 | 3075 ft | 274 kts | 118° |
| 2026-05-03 21:21 | 31.35575 | 121.69533 | 2991 ft | 246 kts | 127° |
| 2026-05-03 21:21 | 31.34440 | 121.70836 | 3015 ft | 223 kts | 146° |
| 2026-05-03 21:21 | 31.33125 | 121.71649 | 3029 ft | 212 kts | 162° |
| 2026-05-03 21:21 | 31.31740 | 121.72176 | 3005 ft | 208 kts | 165° |
| 2026-05-03 21:22 | 31.30369 | 121.72696 | 2978 ft | 207 kts | 165° |
| 2026-05-03 21:22 | 31.29003 | 121.73214 | 2827 ft | 204 kts | 165° |
| 2026-05-03 21:22 | 31.27748 | 121.73693 | 2560 ft | 177 kts | 166° |
| 2026-05-03 21:22 | 31.26626 | 121.74119 | 2333 ft | 164 kts | 167° |
| 2026-05-03 21:23 | 31.25571 | 121.74517 | 2122 ft | 159 kts | 167° |
| 2026-05-03 21:23 | 31.24535 | 121.74909 | 1918 ft | 155 kts | 167° |
| 2026-05-03 21:23 | 31.23521 | 121.75293 | 1710 ft | 151 kts | 167° |
| 2026-05-03 21:23 | 31.22529 | 121.75668 | 1505 ft | 149 kts | 166° |
| 2026-05-03 21:24 | 31.21553 | 121.76037 | 1306 ft | 147 kts | 166° |
| 2026-05-03 21:24 | 31.20590 | 121.76401 | 1112 ft | 144 kts | 166° |
| 2026-05-03 21:24 | 31.19648 | 121.76758 | 923 ft | 142 kts | 165° |
| 2026-05-03 21:24 | 31.18716 | 121.77106 | 730 ft | 140 kts | 164° |
| 2026-05-03 21:25 | 31.17791 | 121.77456 | 542 ft | 139 kts | 164° |
| 2026-05-03 21:25 | 31.16873 | 121.77814 | 363 ft | 140 kts | 163° |
| 2026-05-03 21:25 | 31.15946 | 121.78162 | 167 ft | 140 kts | 162° |
| 2026-05-03 21:25 | 31.15035 | 121.78500 | 32 ft | 132 kts | 163° |
| 2026-05-03 21:26 | 31.14281 | 121.78788 | 22 ft | 91 kts | 162° |
| 2026-05-03 21:26 | 31.13830 | 121.78958 | 22 ft | 53 kts | 162° |
| 2026-05-03 21:26 | 31.13583 | 121.79073 | 25 ft | 22 kts | 141° |
| 2026-05-03 21:26 | 31.13481 | 121.79184 | 24 ft | 19 kts | 134° |
| 2026-05-03 21:27 | 31.13388 | 121.79297 | 24 ft | 19 kts | 134° |
| 2026-05-03 21:27 | 31.13321 | 121.79370 | 23 ft | 12 kts | 130° |
| 2026-05-03 21:27 | 31.13331 | 121.79462 | 23 ft | 13 kts | 72° |
| 2026-05-03 21:27 | 31.13359 | 121.79566 | 23 ft | 15 kts | 72° |
| 2026-05-03 21:28 | 31.13392 | 121.79685 | 21 ft | 15 kts | 72° |
| 2026-05-03 21:28 | 31.13417 | 121.79774 | 22 ft | 9 kts | 72° |
| 2026-05-03 21:28 | 31.13445 | 121.79825 | 23 ft | 6 kts | 25° |
| 2026-05-03 21:28 | 31.13488 | 121.79813 | 23 ft | 7 kts | 341° |
| 2026-05-03 21:29 | 31.13542 | 121.79793 | 23 ft | 9 kts | 342° |
| 2026-05-03 21:29 | 31.13606 | 121.79769 | 23 ft | 10 kts | 342° |
| 2026-05-03 21:29 | 31.13679 | 121.79741 | 23 ft | 12 kts | 342° |
| 2026-05-03 21:29 | 31.13762 | 121.79711 | 23 ft | 14 kts | 342° |
| 2026-05-03 21:30 | 31.13856 | 121.79674 | 23 ft | 15 kts | 342° |
| 2026-05-03 21:30 | 31.13961 | 121.79635 | 23 ft | 16 kts | 342° |
| 2026-05-03 21:30 | 31.14075 | 121.79592 | 25 ft | 18 kts | 342° |
| 2026-05-03 21:30 | 31.14198 | 121.79546 | 23 ft | 19 kts | 342° |
| 2026-05-03 21:31 | 31.14323 | 121.79498 | 23 ft | 18 kts | 341° |
| 2026-05-03 21:31 | 31.14434 | 121.79457 | 23 ft | 16 kts | 341° |
| 2026-05-03 21:31 | 31.14530 | 121.79420 | 23 ft | 13 kts | 342° |
| 2026-05-03 21:31 | 31.14608 | 121.79391 | 23 ft | 11 kts | 342° |
| 2026-05-03 21:32 | 31.14687 | 121.79361 | 24 ft | 13 kts | 341° |
| 2026-05-03 21:32 | 31.14785 | 121.79324 | 25 ft | 16 kts | 342° |
| 2026-05-03 21:32 | 31.14899 | 121.79281 | 23 ft | 17 kts | 341° |
| 2026-05-03 21:32 | 31.15005 | 121.79241 | 23 ft | 15 kts | 342° |
| 2026-05-03 21:33 | 31.15097 | 121.79206 | 23 ft | 13 kts | 341° |
| 2026-05-03 21:33 | 31.15177 | 121.79176 | 23 ft | 11 kts | 343° |
| 2026-05-03 21:33 | 31.15231 | 121.79203 | 23 ft | 8 kts | 65° |
| 2026-05-03 21:33 | 31.15248 | 121.79261 | 23 ft | 6 kts | 72° |
| 2026-05-03 21:34 | 31.15259 | 121.79304 | 23 ft | 5 kts | 72° |
| 2026-05-03 21:34 | 31.15270 | 121.79343 | 24 ft | 5 kts | 72° |
| 2026-05-03 21:34 | 31.15283 | 121.79388 | 23 ft | 6 kts | 72° |
| 2026-05-03 21:34 | 31.15303 | 121.79443 | 24 ft | 9 kts | 48° |
| 2026-05-03 21:35 | 31.15367 | 121.79441 | 23 ft | 11 kts | 342° |
| 2026-05-03 21:35 | 31.15440 | 121.79413 | 23 ft | 10 kts | 342° |
| 2026-05-03 21:35 | 31.15482 | 121.79398 | 23 ft | 9 kts | 342° |
| 2026-05-03 21:35 | 31.15552 | 121.79379 | 23 ft | 8 kts | 9° |
| 2026-05-03 21:36 | 31.15575 | 121.79415 | 23 ft | 9 kts | 72° |
| 2026-05-03 21:36 | 31.15591 | 121.79476 | 23 ft | 1 kts | 71° |
| 2026-05-03 21:36 | 31.15592 | 121.79479 | 23 ft | 0 kts | 71° |
| 2026-05-03 21:36 | 31.15592 | 121.79480 | 23 ft | 0 kts | 71° |